Time;durP1;ratioP1;P1;durP2;ratioP2;P2;SDS_P1;SDS_P2;PMS_P1;PMS_P2;Temp;Humidity;BMP_temperature;BMP_pressure;BME280_temperature;BME280_humidity;BME280_pressure;Samples;Min_cycle;Max_cycle;Signal;HPM_P1;HPM_P2
2021/12/18 00:00:09;;;;;;;4.97;3.70;;;6.40;99.90;;;;;;5081227;28;20454;-71
2021/12/18 00:02:35;;;;;;;4.30;3.27;;;6.40;99.90;;;;;;5080089;28;20486;-71
2021/12/18 00:05:02;;;;;;;4.70;3.50;;;6.30;99.90;;;;;;5080961;28;20483;-71
2021/12/18 00:07:29;;;;;;;3.43;3.13;;;6.30;99.90;;;;;;5080984;28;20469;-70
2021/12/18 00:09:57;;;;;;;3.70;2.73;;;6.30;99.90;;;;;;5080032;28;20501;-71
2021/12/18 00:12:25;;;;;;;4.40;2.93;;;6.40;99.90;;;;;;5076674;28;20454;-70
2021/12/18 00:14:52;;;;;;;6.00;3.47;;;6.40;99.90;;;;;;5076888;28;20457;-70
2021/12/18 00:17:19;;;;;;;3.90;3.23;;;6.40;99.90;;;;;;5076218;28;20919;-70
2021/12/18 00:19:45;;;;;;;4.47;3.47;;;6.40;99.90;;;;;;5076476;28;20500;-70
2021/12/18 00:22:12;;;;;;;5.73;3.30;;;6.30;99.90;;;;;;5076558;28;20458;-71
2021/12/18 00:24:39;;;;;;;5.10;4.03;;;6.40;99.90;;;;;;5076686;28;20463;-70
2021/12/18 00:27:06;;;;;;;6.50;4.13;;;6.30;99.90;;;;;;5076197;28;20454;-69
2021/12/18 00:29:34;;;;;;;4.40;3.73;;;6.30;99.90;;;;;;5076350;28;20458;-69
2021/12/18 00:32:01;;;;;;;5.77;3.50;;;6.30;99.90;;;;;;5076285;28;20478;-69
2021/12/18 00:34:28;;;;;;;6.70;4.47;;;6.40;99.90;;;;;;5075994;28;20465;-70
2021/12/18 00:36:54;;;;;;;8.10;5.00;;;6.30;99.90;;;;;;5075913;28;20463;-71
2021/12/18 00:39:21;;;;;;;5.87;4.70;;;6.30;99.90;;;;;;5075858;28;20462;-70
2021/12/18 00:42:00;;;;;;;5.83;4.40;;;6.30;99.90;;;;;;5075959;28;20461;-70
2021/12/18 00:44:26;;;;;;;6.00;4.70;;;6.20;99.90;;;;;;5076029;28;20458;-70
2021/12/18 00:46:55;;;;;;;8.77;5.40;;;6.20;99.90;;;;;;5075848;28;20463;-70
2021/12/18 00:49:23;;;;;;;6.27;5.00;;;6.20;99.90;;;;;;5075652;28;20465;-72
2021/12/18 00:51:50;;;;;;;6.50;5.00;;;6.20;99.90;;;;;;5075554;28;20486;-70
2021/12/18 00:54:17;;;;;;;6.87;5.03;;;6.20;99.90;;;;;;5075760;28;20457;-70
2021/12/18 00:56:43;;;;;;;5.87;3.93;;;6.20;99.90;;;;;;5075635;28;20610;-71
2021/12/18 00:59:10;;;;;;;7.30;4.63;;;6.30;99.90;;;;;;5075708;28;20462;-71
2021/12/18 01:01:37;;;;;;;4.80;3.63;;;6.30;99.90;;;;;;5075308;28;20484;-70
2021/12/18 01:04:05;;;;;;;5.07;4.17;;;6.30;99.90;;;;;;5075608;28;20458;-70
2021/12/18 01:06:33;;;;;;;5.23;3.60;;;6.30;99.90;;;;;;5075218;28;20938;-71
2021/12/18 01:09:00;;;;;;;4.83;3.60;;;6.30;99.90;;;;;;5075293;28;20465;-70
2021/12/18 01:11:33;;;;;;;6.87;3.70;;;6.30;99.90;;;;;;5075135;28;20978;-70
2021/12/18 01:14:18;;;;;;;4.43;3.03;;;6.20;99.90;;;;;;5075215;28;20501;-70
2021/12/18 01:16:54;;;;;;;6.13;3.60;;;6.20;99.90;;;;;;5075509;28;20446;-70
2021/12/18 01:24:51;;;;;;;3.70;3.40;;;6.30;99.90;;;;;;5075312;28;20627;-71
2021/12/18 01:27:19;;;;;;;5.93;3.43;;;6.30;99.90;;;;;;5075236;28;20484;-70
2021/12/18 01:29:46;;;;;;;5.10;2.90;;;6.30;99.90;;;;;;5075460;28;20454;-70
2021/12/18 01:32:14;;;;;;;5.40;3.47;;;6.30;99.90;;;;;;5074882;28;20482;-70
2021/12/18 01:34:42;;;;;;;3.30;2.40;;;6.30;99.90;;;;;;5075205;28;20488;-70
2021/12/18 01:37:09;;;;;;;3.37;2.90;;;6.30;99.90;;;;;;5074823;28;20461;-71
2021/12/18 01:39:36;;;;;;;3.67;2.87;;;6.30;99.90;;;;;;5074986;28;20827;-70
2021/12/18 01:42:31;;;;;;;3.90;2.60;;;6.30;99.90;;;;;;5074656;28;20464;-70
2021/12/18 01:45:06;;;;;;;3.67;3.30;;;6.30;99.90;;;;;;5074563;28;20534;-71
2021/12/18 01:53:02;;;;;;;3.17;2.67;;;6.20;99.90;;;;;;5074345;28;20429;-70
2021/12/18 01:55:31;;;;;;;3.90;3.00;;;6.20;99.90;;;;;;5074792;28;20454;-70
2021/12/18 01:57:59;;;;;;;3.50;3.10;;;6.10;99.90;;;;;;5074194;28;20939;-70
2021/12/18 02:00:29;;;;;;;4.13;2.60;;;6.10;99.90;;;;;;5074253;28;20450;-70
2021/12/18 02:02:56;;;;;;;3.37;2.93;;;6.10;99.90;;;;;;5075400;28;20438;-70
2021/12/18 02:05:24;;;;;;;3.10;2.50;;;6.10;99.90;;;;;;5074838;28;20533;-70
2021/12/18 02:07:51;;;;;;;4.40;2.93;;;6.20;99.90;;;;;;5074544;28;20453;-70
2021/12/18 02:10:20;;;;;;;2.97;2.70;;;6.20;99.90;;;;;;5074784;28;20454;-71
2021/12/18 02:12:55;;;;;;;5.70;3.00;;;6.20;99.90;;;;;;5074822;28;20564;-70
2021/12/18 02:20:55;;;;;;;5.20;3.20;;;6.20;99.90;;;;;;5074320;28;20477;-69
2021/12/18 02:23:22;;;;;;;3.40;2.97;;;6.20;99.90;;;;;;5074539;28;20455;-70
2021/12/18 02:25:49;;;;;;;4.43;3.00;;;6.30;99.90;;;;;;5074626;28;20462;-70
2021/12/18 02:28:21;;;;;;;5.47;3.63;;;6.30;99.90;;;;;;5074413;28;20459;-70
2021/12/18 02:30:50;;;;;;;4.60;2.90;;;6.30;99.90;;;;;;5074401;28;20438;-70
2021/12/18 02:33:17;;;;;;;4.60;3.60;;;6.30;99.90;;;;;;5074367;28;20462;-70
2021/12/18 02:35:48;;;;;;;8.27;3.70;;;6.30;99.90;;;;;;5074372;28;20761;-70
2021/12/18 02:38:20;;;;;;;4.83;3.00;;;6.30;99.90;;;;;;5074454;28;20442;-70
2021/12/18 02:40:59;;;;;;;4.50;3.43;;;6.30;99.90;;;;;;5073988;28;20438;-70
2021/12/18 02:43:27;;;;;;;4.50;3.60;;;6.30;99.90;;;;;;5074214;28;20827;-69
2021/12/18 02:45:59;;;;;;;4.90;3.57;;;6.30;99.90;;;;;;5074074;28;20457;-70
2021/12/18 02:48:27;;;;;;;4.33;3.07;;;6.30;99.90;;;;;;5074308;28;20831;-70
2021/12/18 02:50:54;;;;;;;3.97;3.30;;;6.30;99.90;;;;;;5074323;28;20867;-70
2021/12/18 02:53:22;;;;;;;5.60;3.83;;;6.20;99.90;;;;;;5073655;28;20465;-70
2021/12/18 02:55:55;;;;;;;3.47;3.07;;;6.20;99.90;;;;;;5074273;28;20580;-70
2021/12/18 02:58:22;;;;;;;4.50;3.60;;;6.20;99.90;;;;;;5073937;28;20499;-70
2021/12/18 03:00:50;;;;;;;3.60;3.10;;;6.20;99.90;;;;;;5075539;28;20482;-70
2021/12/18 03:03:17;;;;;;;3.30;2.93;;;6.30;99.90;;;;;;5077514;28;20454;-70
2021/12/18 03:05:52;;;;;;;4.67;2.87;;;6.30;99.90;;;;;;5077799;28;20458;-70
2021/12/18 03:08:33;;;;;;;3.50;2.60;;;6.40;99.90;;;;;;5077509;28;20912;-70
2021/12/18 03:22:40;;;;;;;4.57;3.47;;;6.40;99.90;;;;;;5077100;28;20456;-69
2021/12/18 03:25:05;;;;;;;7.20;3.07;;;6.40;99.90;;;;;;5077099;28;20529;-70
2021/12/18 03:27:33;;;;;;;4.70;3.30;;;6.20;99.90;;;;;;5077395;28;20442;-70
2021/12/18 03:30:00;;;;;;;4.93;3.33;;;6.20;99.90;;;;;;5077498;28;20455;-69
2021/12/18 03:32:27;;;;;;;3.93;3.20;;;6.20;99.90;;;;;;5077483;28;20473;-70
2021/12/18 03:34:54;;;;;;;4.23;3.20;;;6.30;99.90;;;;;;5077357;28;20458;-70
2021/12/18 03:37:22;;;;;;;6.10;4.10;;;6.30;99.90;;;;;;5077441;28;20787;-70
2021/12/18 03:39:49;;;;;;;5.00;4.00;;;6.30;99.90;;;;;;5076867;28;20516;-69
2021/12/18 03:42:15;;;;;;;5.87;3.40;;;6.30;99.90;;;;;;5077375;28;20767;-70
2021/12/18 03:44:44;;;;;;;5.60;4.03;;;6.30;99.90;;;;;;5077348;28;20458;-70
2021/12/18 03:47:10;;;;;;;4.13;3.60;;;6.30;99.90;;;;;;5076955;28;20500;-69
2021/12/18 03:49:38;;;;;;;5.27;4.00;;;6.30;99.90;;;;;;5077012;28;20454;-70
2021/12/18 03:52:05;;;;;;;4.00;3.50;;;6.20;99.90;;;;;;5076454;28;20564;-70
2021/12/18 03:54:31;;;;;;;5.37;4.07;;;6.20;99.90;;;;;;5077567;28;20458;-70
2021/12/18 03:56:58;;;;;;;5.00;3.73;;;6.20;99.90;;;;;;5076770;28;20463;-71
2021/12/18 03:59:25;;;;;;;5.67;3.87;;;6.20;99.90;;;;;;5077103;28;20460;-70
2021/12/18 04:01:53;;;;;;;5.77;4.30;;;6.20;99.90;;;;;;5076368;28;20494;-70
2021/12/18 04:04:20;;;;;;;7.83;4.53;;;6.20;99.90;;;;;;5076681;28;20462;-70
2021/12/18 04:06:47;;;;;;;5.93;4.00;;;6.30;99.90;;;;;;5076774;28;20465;-70
2021/12/18 04:09:14;;;;;;;5.47;3.97;;;6.30;99.90;;;;;;5076665;28;20480;-70
2021/12/18 04:11:41;;;;;;;7.30;4.33;;;6.30;99.90;;;;;;5076135;28;20535;-70
2021/12/18 04:14:10;;;;;;;6.97;4.07;;;6.30;99.90;;;;;;5076556;28;20458;-70
2021/12/18 04:16:37;;;;;;;6.97;4.93;;;6.30;99.90;;;;;;5076806;28;20493;-70
2021/12/18 04:19:06;;;;;;;8.00;4.50;;;6.20;99.90;;;;;;5076632;28;20976;-70
2021/12/18 04:21:34;;;;;;;6.20;4.37;;;6.20;99.90;;;;;;5076491;28;20454;-70
2021/12/18 04:24:02;;;;;;;4.63;4.13;;;6.20;99.90;;;;;;5076363;28;20485;-69
2021/12/18 04:26:30;;;;;;;4.17;3.73;;;6.30;99.90;;;;;;5076640;28;20472;-71
2021/12/18 04:28:57;;;;;;;4.23;3.30;;;6.30;99.90;;;;;;5076407;28;20455;-71
2021/12/18 04:31:24;;;;;;;6.70;3.77;;;6.20;99.90;;;;;;5076127;28;20454;-70
2021/12/18 04:33:50;;;;;;;6.87;4.90;;;6.20;99.90;;;;;;5076073;28;20462;-70
2021/12/18 04:36:19;;;;;;;5.17;3.90;;;6.20;99.90;;;;;;5075842;28;20457;-70
2021/12/18 04:38:46;;;;;;;7.23;4.43;;;6.10;99.90;;;;;;5075944;28;20465;-70
2021/12/18 04:41:20;;;;;;;5.47;3.97;;;6.10;99.90;;;;;;5076563;28;20535;-70
2021/12/18 04:43:47;;;;;;;5.00;4.00;;;6.10;99.90;;;;;;5076339;28;20468;-70
2021/12/18 04:46:14;;;;;;;6.40;4.40;;;6.10;99.90;;;;;;5075614;28;20466;-70
2021/12/18 04:48:41;;;;;;;5.43;4.20;;;6.10;99.90;;;;;;5075650;28;20454;-70
2021/12/18 04:51:07;;;;;;;4.87;4.03;;;6.10;99.90;;;;;;5075738;28;20469;-70
2021/12/18 04:53:36;;;;;;;7.13;4.17;;;6.10;99.90;;;;;;5076464;28;20804;-70
2021/12/18 04:56:03;;;;;;;5.90;4.17;;;6.20;99.90;;;;;;5075617;28;20458;-70
2021/12/18 04:58:30;;;;;;;6.47;3.63;;;6.10;99.90;;;;;;5076273;28;20454;-70
2021/12/18 05:00:57;;;;;;;5.53;3.60;;;6.10;99.90;;;;;;5075146;28;20497;-70
2021/12/18 05:03:23;;;;;;;5.07;3.30;;;6.10;99.90;;;;;;5075833;28;20537;-70
2021/12/18 05:05:50;;;;;;;5.47;3.40;;;6.10;99.90;;;;;;5075584;28;20462;-70
2021/12/18 05:08:17;;;;;;;4.40;3.03;;;6.10;99.90;;;;;;5075333;28;20454;-70
2021/12/18 05:10:45;;;;;;;4.80;2.90;;;6.10;99.90;;;;;;5075391;28;20454;-70
2021/12/18 05:13:12;;;;;;;5.07;2.90;;;6.10;99.90;;;;;;5075281;28;20478;-70
2021/12/18 05:15:39;;;;;;;3.37;2.53;;;6.10;99.90;;;;;;5075575;28;20458;-71
2021/12/18 05:18:05;;;;;;;3.40;2.87;;;6.10;99.90;;;;;;5075426;28;20512;-69
2021/12/18 05:20:32;;;;;;;5.60;3.37;;;6.10;99.90;;;;;;5075478;28;20544;-70
2021/12/18 05:22:59;;;;;;;3.87;2.90;;;6.10;99.90;;;;;;5074512;28;20454;-70
2021/12/18 05:25:26;;;;;;;3.80;2.73;;;6.10;99.90;;;;;;5075152;28;20469;-70
2021/12/18 05:27:54;;;;;;;4.33;2.87;;;6.10;99.90;;;;;;5075190;28;20465;-70
2021/12/18 05:30:20;;;;;;;5.53;3.50;;;6.10;99.90;;;;;;5075091;28;20476;-70
2021/12/18 05:32:47;;;;;;;3.80;3.03;;;6.10;99.90;;;;;;5075200;28;20474;-70
2021/12/18 05:35:16;;;;;;;4.33;3.30;;;6.10;99.90;;;;;;5075236;28;20458;-70
2021/12/18 05:37:48;;;;;;;3.70;3.00;;;6.10;99.90;;;;;;5074964;28;20484;-70
2021/12/18 05:40:17;;;;;;;4.17;2.90;;;6.10;99.90;;;;;;5075138;28;20875;-70
2021/12/18 05:42:45;;;;;;;4.33;3.20;;;6.20;99.90;;;;;;5075056;28;20515;-70
2021/12/18 05:45:13;;;;;;;4.27;3.23;;;6.20;99.90;;;;;;5075132;28;20469;-70
2021/12/18 05:47:40;;;;;;;4.20;2.97;;;6.30;99.90;;;;;;5074844;28;20472;-70
2021/12/18 05:50:08;;;;;;;3.80;2.90;;;6.30;99.90;;;;;;5075180;28;20791;-70
2021/12/18 05:52:35;;;;;;;5.47;3.30;;;6.20;99.90;;;;;;5074914;28;20489;-70
2021/12/18 05:55:01;;;;;;;4.20;3.37;;;6.20;99.90;;;;;;5074973;28;20920;-70
2021/12/18 05:57:31;;;;;;;4.97;2.90;;;6.20;99.90;;;;;;5075186;28;20461;-70
2021/12/18 05:59:58;;;;;;;4.93;3.13;;;6.20;99.90;;;;;;5075144;28;20465;-70
2021/12/18 06:02:26;;;;;;;2.93;2.63;;;6.20;99.90;;;;;;5074496;28;20478;-70
2021/12/18 06:04:52;;;;;;;3.10;2.60;;;6.20;99.90;;;;;;5074801;28;20450;-70
2021/12/18 06:07:29;;;;;;;2.70;2.33;;;6.20;99.90;;;;;;5075173;28;20458;-69
2021/12/18 06:10:00;;;;;;;4.57;3.10;;;6.10;99.90;;;;;;5074917;28;20439;-69
2021/12/18 06:12:27;;;;;;;4.20;2.57;;;6.10;99.90;;;;;;5074964;28;20566;-70
2021/12/18 06:14:53;;;;;;;3.17;2.30;;;6.00;99.90;;;;;;5074896;28;20794;-69
2021/12/18 06:17:22;;;;;;;2.60;2.40;;;6.00;99.90;;;;;;5074667;28;20458;-70
2021/12/18 06:19:50;;;;;;;4.33;2.40;;;6.00;99.90;;;;;;5074817;28;20461;-69
2021/12/18 06:22:17;;;;;;;3.57;2.90;;;6.10;99.90;;;;;;5074988;28;20454;-70
2021/12/18 06:24:44;;;;;;;3.10;2.60;;;6.10;99.90;;;;;;5075277;28;20454;-70
2021/12/18 06:27:10;;;;;;;5.40;3.17;;;6.10;99.90;;;;;;5074790;28;20495;-70
2021/12/18 06:29:39;;;;;;;4.07;2.90;;;6.10;99.90;;;;;;5075601;28;20851;-70
2021/12/18 06:32:06;;;;;;;6.93;3.47;;;6.10;99.90;;;;;;5074764;28;20461;-70
2021/12/18 06:34:33;;;;;;;5.07;3.30;;;6.10;99.90;;;;;;5075605;28;20502;-70
2021/12/18 06:37:01;;;;;;;7.17;4.10;;;6.10;99.90;;;;;;5078730;28;20458;-70
2021/12/18 06:39:28;;;;;;;5.47;3.40;;;6.10;99.90;;;;;;5078420;28;20452;-70
2021/12/18 06:41:55;;;;;;;5.07;3.87;;;6.10;99.90;;;;;;5078456;28;20468;-71
2021/12/18 06:44:21;;;;;;;6.50;4.00;;;6.10;99.90;;;;;;5078401;28;20458;-69
2021/12/18 06:46:48;;;;;;;5.50;4.10;;;6.10;99.90;;;;;;5078100;28;20449;-70
2021/12/18 06:49:15;;;;;;;5.23;3.83;;;6.20;99.90;;;;;;5078239;28;20460;-70
2021/12/18 06:51:42;;;;;;;4.93;3.53;;;6.20;99.90;;;;;;5078350;28;20533;-70
2021/12/18 06:54:10;;;;;;;5.37;4.10;;;6.20;99.90;;;;;;5078233;28;20489;-69
2021/12/18 06:56:39;;;;;;;5.70;4.00;;;6.20;99.90;;;;;;5078153;28;20465;-70
2021/12/18 06:59:06;;;;;;;5.50;3.53;;;6.20;99.90;;;;;;5079447;28;20467;-69
2021/12/18 07:01:33;;;;;;;5.57;3.40;;;6.20;99.90;;;;;;5081373;28;20500;-71
2021/12/18 07:04:00;;;;;;;7.03;4.20;;;6.10;99.90;;;;;;5081661;28;20624;-70
2021/12/18 07:06:28;;;;;;;5.57;3.60;;;6.10;99.90;;;;;;5079687;28;20457;-70
2021/12/18 07:08:55;;;;;;;5.33;3.50;;;6.10;99.90;;;;;;5079010;28;20462;-70
2021/12/18 07:11:24;;;;;;;10.00;3.90;;;6.10;99.90;;;;;;5078250;28;20453;-70
2021/12/18 07:13:50;;;;;;;6.07;3.83;;;6.10;99.90;;;;;;5078107;28;20992;-71
2021/12/18 07:16:17;;;;;;;4.40;3.90;;;6.10;99.90;;;;;;5078467;28;20466;-70
2021/12/18 07:18:44;;;;;;;6.10;3.70;;;6.10;99.90;;;;;;5077769;28;20740;-70
2021/12/18 07:21:11;;;;;;;4.37;3.57;;;6.10;99.90;;;;;;5078323;28;20815;-70
2021/12/18 07:23:37;;;;;;;4.50;3.80;;;6.00;99.90;;;;;;5077633;28;20464;-70
2021/12/18 07:26:04;;;;;;;5.93;3.33;;;6.10;99.90;;;;;;5077769;28;20468;-70
2021/12/18 07:28:32;;;;;;;4.13;3.07;;;6.10;99.90;;;;;;5078180;28;20537;-71
2021/12/18 07:30:59;;;;;;;4.87;3.70;;;6.10;99.90;;;;;;5077632;28;20465;-70
2021/12/18 07:33:26;;;;;;;3.40;3.10;;;6.10;99.90;;;;;;5077926;28;20470;-70
2021/12/18 07:35:52;;;;;;;5.47;4.17;;;6.10;99.90;;;;;;5078055;28;20469;-70
2021/12/18 07:38:19;;;;;;;3.73;3.10;;;6.20;99.90;;;;;;5077281;28;20459;-70
2021/12/18 07:40:46;;;;;;;3.70;2.73;;;6.20;99.90;;;;;;5077607;28;20469;-70
2021/12/18 07:43:13;;;;;;;3.83;2.90;;;6.20;99.90;;;;;;5078153;28;20533;-71
2021/12/18 07:45:41;;;;;;;4.53;3.10;;;6.10;99.90;;;;;;5077785;28;20462;-70
2021/12/18 07:48:07;;;;;;;4.30;3.30;;;6.20;99.90;;;;;;5077731;28;20851;-70
2021/12/18 07:50:34;;;;;;;5.03;3.13;;;6.10;99.90;;;;;;5079417;28;20458;-70
2021/12/18 07:53:01;;;;;;;4.47;3.27;;;6.20;99.90;;;;;;5078699;28;20482;-70
2021/12/18 07:55:29;;;;;;;4.63;3.20;;;6.20;99.90;;;;;;5079496;28;20459;-70
2021/12/18 07:57:56;;;;;;;6.37;3.20;;;6.20;99.90;;;;;;5079052;28;20481;-70
2021/12/18 08:00:23;;;;;;;4.33;2.87;;;6.20;99.90;;;;;;5079439;28;20544;-70
2021/12/18 08:02:51;;;;;;;4.60;3.10;;;6.20;99.90;;;;;;5078272;28;20514;-71
2021/12/18 08:05:18;;;;;;;3.87;3.10;;;6.10;99.90;;;;;;5078321;28;20458;-70
2021/12/18 08:07:45;;;;;;;5.27;3.13;;;6.10;99.90;;;;;;5076865;28;20461;-70
2021/12/18 08:10:12;;;;;;;4.43;3.43;;;6.00;99.90;;;;;;5076752;28;20451;-70
2021/12/18 08:12:39;;;;;;;5.93;4.10;;;6.00;99.90;;;;;;5076534;28;20455;-69
2021/12/18 08:15:07;;;;;;;5.93;3.60;;;6.00;99.90;;;;;;5076514;28;20459;-70
2021/12/18 08:17:34;;;;;;;6.00;3.73;;;6.00;99.90;;;;;;5076370;28;20964;-71
2021/12/18 08:20:03;;;;;;;7.03;4.00;;;6.10;99.90;;;;;;5076329;28;20931;-71
2021/12/18 08:22:30;;;;;;;4.13;3.73;;;6.00;99.90;;;;;;5076511;28;20454;-70
2021/12/18 08:24:56;;;;;;;5.57;3.90;;;6.00;99.90;;;;;;5076218;28;20477;-71
2021/12/18 08:27:23;;;;;;;4.67;3.70;;;6.00;99.90;;;;;;5076157;28;20458;-70
2021/12/18 08:29:50;;;;;;;7.23;4.10;;;6.00;99.90;;;;;;5076283;28;20458;-70
2021/12/18 08:32:17;;;;;;;5.30;3.87;;;6.00;99.90;;;;;;5076386;28;20484;-70
2021/12/18 08:34:43;;;;;;;6.23;4.17;;;6.10;99.90;;;;;;5076243;28;20564;-71
2021/12/18 08:37:12;;;;;;;6.83;3.97;;;6.10;99.90;;;;;;5075928;28;20529;-70
2021/12/18 08:39:38;;;;;;;6.20;4.17;;;6.10;99.90;;;;;;5075918;28;20470;-70
2021/12/18 08:42:06;;;;;;;4.43;3.03;;;6.00;99.90;;;;;;5075623;28;20898;-70
2021/12/18 08:44:33;;;;;;;6.10;2.80;;;6.00;99.90;;;;;;5076205;28;20450;-70
2021/12/18 08:47:00;;;;;;;3.27;2.60;;;5.90;99.90;;;;;;5076132;28;20462;-70
2021/12/18 08:49:28;;;;;;;3.17;2.57;;;5.90;99.90;;;;;;5076121;28;20470;-70
2021/12/18 08:51:55;;;;;;;2.90;2.10;;;5.90;99.90;;;;;;5076087;28;20465;-70
2021/12/18 08:54:25;;;;;;;2.60;2.00;;;5.90;99.90;;;;;;5075404;28;20961;-70
2021/12/18 08:56:52;;;;;;;3.10;1.93;;;5.80;99.90;;;;;;5075872;28;20438;-71
2021/12/18 08:59:19;;;;;;;2.43;2.10;;;5.80;99.90;;;;;;5075628;28;20766;-70
2021/12/18 09:01:45;;;;;;;3.17;2.40;;;5.90;99.90;;;;;;5075521;28;20493;-70
2021/12/18 09:04:12;;;;;;;3.13;2.50;;;5.90;99.90;;;;;;5075201;28;20454;-70
2021/12/18 09:06:39;;;;;;;4.10;2.60;;;5.80;99.90;;;;;;5075576;28;20469;-70
2021/12/18 09:09:06;;;;;;;3.67;2.47;;;5.90;99.90;;;;;;5075380;28;20462;-69
2021/12/18 09:11:34;;;;;;;3.70;2.70;;;5.90;99.90;;;;;;5075627;28;20564;-70
2021/12/18 09:14:02;;;;;;;3.73;3.20;;;6.00;99.90;;;;;;5075707;28;20482;-70
2021/12/18 09:16:29;;;;;;;3.23;2.70;;;6.00;99.90;;;;;;5075201;28;20465;-71
2021/12/18 09:18:56;;;;;;;4.00;2.90;;;6.10;99.90;;;;;;5075548;28;20454;-70
2021/12/18 09:21:23;;;;;;;4.30;3.00;;;6.10;99.90;;;;;;5075182;28;20833;-70
2021/12/18 09:23:50;;;;;;;3.53;2.80;;;6.10;99.90;;;;;;5075522;28;20898;-71
2021/12/18 09:26:16;;;;;;;3.13;2.73;;;6.20;99.90;;;;;;5075697;28;20520;-71
2021/12/18 09:28:44;;;;;;;3.80;3.10;;;6.20;99.90;;;;;;5075183;28;20466;-70
2021/12/18 09:31:11;;;;;;;5.40;3.20;;;6.20;99.90;;;;;;5074605;28;20466;-70
2021/12/18 09:33:38;;;;;;;6.50;3.50;;;6.30;99.90;;;;;;5074585;28;20509;-69
2021/12/18 09:36:05;;;;;;;5.23;3.97;;;6.20;99.90;;;;;;5074895;28;20458;-70
2021/12/18 09:38:32;;;;;;;4.77;3.13;;;6.30;99.90;;;;;;5074788;28;20482;-70
2021/12/18 09:40:59;;;;;;;4.33;3.20;;;6.30;99.90;;;;;;5074886;28;20473;-71
2021/12/18 09:43:26;;;;;;;4.00;3.10;;;6.30;99.90;;;;;;5074538;28;20450;-70
2021/12/18 09:45:54;;;;;;;4.40;3.27;;;6.40;99.90;;;;;;5074098;28;20458;-71
2021/12/18 09:48:22;;;;;;;5.80;4.17;;;6.40;99.90;;;;;;5074622;28;20465;-71
2021/12/18 09:50:56;;;;;;;3.90;3.13;;;6.40;99.90;;;;;;5074619;28;20500;-70
2021/12/18 09:53:23;;;;;;;7.43;3.50;;;6.40;99.90;;;;;;5074939;28;20540;-70
2021/12/18 09:55:50;;;;;;;4.27;3.63;;;6.40;99.90;;;;;;5074802;28;20464;-71
2021/12/18 09:58:16;;;;;;;7.40;4.50;;;6.40;99.90;;;;;;5074890;28;20454;-70
2021/12/18 10:00:43;;;;;;;6.70;4.10;;;6.30;99.90;;;;;;5074698;28;20489;-69
2021/12/18 10:03:11;;;;;;;4.47;4.00;;;6.40;99.90;;;;;;5074730;28;20447;-70
2021/12/18 10:05:38;;;;;;;5.73;4.00;;;6.40;99.90;;;;;;5075166;28;20458;-70
2021/12/18 10:08:16;;;;;;;4.70;3.17;;;6.40;99.90;;;;;;5074235;28;20454;-71
2021/12/18 10:11:02;;;;;;;4.30;3.90;;;6.30;99.90;;;;;;5074681;28;20485;-71
2021/12/18 10:13:29;;;;;;;6.30;3.73;;;6.30;99.90;;;;;;5074335;28;20478;-71
2021/12/18 10:16:10;;;;;;;5.47;3.93;;;6.30;99.90;;;;;;5074660;28;20462;-70
2021/12/18 10:18:39;;;;;;;5.30;3.90;;;6.30;99.90;;;;;;5074269;28;20489;-70
2021/12/18 10:21:12;;;;;;;3.93;3.53;;;6.40;99.90;;;;;;5074000;28;20941;-71
2021/12/18 10:23:41;;;;;;;4.83;3.80;;;6.40;99.90;;;;;;5073811;28;20922;-69
2021/12/18 10:26:09;;;;;;;4.20;3.60;;;6.40;99.90;;;;;;5074183;28;20883;-69
2021/12/18 10:28:46;;;;;;;5.30;3.40;;;6.50;99.90;;;;;;5074677;28;20524;-70
2021/12/18 10:31:13;;;;;;;4.63;3.33;;;6.50;99.90;;;;;;5075321;28;20547;-70
2021/12/18 10:33:41;;;;;;;3.93;3.20;;;6.50;99.90;;;;;;5074369;28;20478;-70
2021/12/18 10:36:15;;;;;;;4.77;3.27;;;6.60;99.90;;;;;;5075126;28;20453;-70
2021/12/18 10:38:46;;;;;;;4.20;3.17;;;6.60;99.90;;;;;;5074965;28;20854;-70
2021/12/18 10:41:25;;;;;;;8.07;3.67;;;6.60;99.90;;;;;;5075383;28;20438;-70
2021/12/18 10:44:01;;;;;;;3.50;3.10;;;6.60;99.90;;;;;;5076056;28;20449;-70
2021/12/18 10:46:29;;;;;;;4.10;3.70;;;6.60;99.90;;;;;;5075161;28;20438;-70
2021/12/18 10:48:59;;;;;;;5.90;3.27;;;6.70;99.90;;;;;;5074944;28;20512;-70
2021/12/18 10:51:29;;;;;;;3.63;3.07;;;6.70;99.90;;;;;;5075510;28;20458;-70
2021/12/18 10:54:01;;;;;;;4.80;3.27;;;6.70;99.90;;;;;;5074931;28;20482;-70
2021/12/18 10:56:37;;;;;;;4.30;3.73;;;6.60;99.90;;;;;;5075565;28;20443;-70
2021/12/18 10:59:07;;;;;;;5.87;4.70;;;6.60;99.90;;;;;;5075391;28;20465;-70
2021/12/18 11:01:39;;;;;;;4.40;3.30;;;6.60;99.90;;;;;;5075086;28;20490;-71
2021/12/18 11:04:07;;;;;;;5.37;3.57;;;6.70;99.90;;;;;;5075485;28;20450;-70
2021/12/18 11:06:35;;;;;;;5.47;3.50;;;6.70;99.90;;;;;;5075069;28;20897;-70
2021/12/18 11:09:06;;;;;;;5.20;3.37;;;6.70;99.90;;;;;;5074503;28;20458;-70
2021/12/18 11:14:33;;;;;;;6.60;3.50;;;6.80;99.90;;;;;;5073904;28;20686;-71
2021/12/18 11:17:03;;;;;;;7.37;3.83;;;6.80;99.90;;;;;;5073986;28;20476;-70
2021/12/18 11:19:33;;;;;;;5.83;3.70;;;6.80;99.90;;;;;;5074174;28;20450;-72
2021/12/18 11:22:03;;;;;;;4.13;2.97;;;6.80;99.90;;;;;;5075557;28;20453;-71
2021/12/18 11:24:35;;;;;;;4.03;2.87;;;6.80;99.90;;;;;;5077644;28;20434;-70
2021/12/18 11:27:05;;;;;;;6.77;3.77;;;6.80;99.90;;;;;;5077263;28;20456;-72
2021/12/18 11:29:40;;;;;;;4.23;3.03;;;6.70;99.90;;;;;;5077603;28;20799;-71
2021/12/18 11:32:09;;;;;;;6.50;3.83;;;6.70;99.90;;;;;;5077042;28;20445;-70
2021/12/18 11:34:39;;;;;;;6.20;3.60;;;6.70;99.90;;;;;;5077430;28;20481;-69
2021/12/18 11:37:08;;;;;;;5.47;2.83;;;6.70;99.90;;;;;;5077938;28;20498;-70
2021/12/18 11:39:36;;;;;;;6.40;3.80;;;6.70;99.90;;;;;;5077374;28;20458;-70
2021/12/18 11:42:04;;;;;;;6.10;3.57;;;6.70;99.90;;;;;;5077217;28;20462;-70
2021/12/18 11:44:34;;;;;;;7.07;3.60;;;6.70;99.90;;;;;;5077715;28;20458;-70
2021/12/18 11:47:28;;;;;;;3.87;2.60;;;6.70;99.90;;;;;;5077060;28;20458;-71
2021/12/18 11:49:59;;;;;;;4.40;2.40;;;6.70;99.90;;;;;;5077203;28;20447;-71
2021/12/18 11:52:27;;;;;;;5.83;2.40;;;6.70;99.90;;;;;;5076858;28;20552;-72
2021/12/18 11:54:56;;;;;;;2.90;2.40;;;6.70;99.90;;;;;;5077114;28;20592;-73
2021/12/18 11:57:42;;;;;;;6.20;3.07;;;6.70;99.90;;;;;;5076763;28;20468;-71
2021/12/18 12:00:31;;;;;;;3.47;2.10;;;6.70;99.90;;;;;;5076122;28;20464;-71
2021/12/18 12:03:00;;;;;;;4.43;2.30;;;6.70;99.90;;;;;;5077252;28;20438;-70
2021/12/18 12:05:36;;;;;;;2.93;2.20;;;6.80;99.90;;;;;;5076826;28;20773;-73
2021/12/18 12:08:20;;;;;;;2.50;1.87;;;6.80;99.90;;;;;;5076594;28;20438;-70
2021/12/18 12:11:20;;;;;;;2.13;1.77;;;6.80;99.90;;;;;;5076623;28;20479;-70
2021/12/18 12:14:03;;;;;;;2.20;1.73;;;6.80;99.90;;;;;;5076617;28;20446;-71
2021/12/18 12:17:02;;;;;;;1.97;1.70;;;6.90;99.90;;;;;;5076926;28;20466;-71
2021/12/18 12:19:59;;;;;;;2.60;1.90;;;6.90;99.90;;;;;;5077685;28;20455;-71
2021/12/18 12:22:54;;;;;;;3.00;2.10;;;6.90;99.90;;;;;;5077143;28;20489;-71
2021/12/18 12:25:37;;;;;;;2.33;1.73;;;6.90;99.90;;;;;;5076496;28;20504;-71
2021/12/18 12:28:06;;;;;;;1.90;1.63;;;6.90;99.90;;;;;;5074078;28;20475;-71
2021/12/18 12:30:39;;;;;;;2.67;1.87;;;6.90;99.90;;;;;;5076331;28;20458;-70
2021/12/18 12:33:10;;;;;;;3.20;2.40;;;7.00;99.90;;;;;;5075701;28;20434;-70
2021/12/18 12:36:02;;;;;;;3.07;2.10;;;7.00;99.90;;;;;;5076352;28;20949;-70
2021/12/18 12:38:33;;;;;;;2.10;1.70;;;7.00;99.90;;;;;;5076203;28;20446;-70
2021/12/18 12:41:32;;;;;;;3.20;2.07;;;7.10;99.90;;;;;;5076401;28;20530;-71
2021/12/18 12:44:02;;;;;;;2.87;2.17;;;7.10;99.90;;;;;;5075722;28;20544;-70
2021/12/18 12:46:30;;;;;;;2.70;1.93;;;7.10;99.90;;;;;;5076249;28;20472;-69
2021/12/18 12:49:03;;;;;;;3.50;2.53;;;7.20;99.90;;;;;;5075917;28;20454;-70
2021/12/18 12:52:07;;;;;;;3.30;2.90;;;7.20;99.90;;;;;;5077129;28;20446;-69
2021/12/18 12:54:54;;;;;;;2.40;2.03;;;7.10;99.90;;;;;;5077367;28;20546;-70
2021/12/18 12:57:39;;;;;;;2.00;1.77;;;7.20;99.90;;;;;;5077671;28;20455;-70
2021/12/18 13:00:46;;;;;;;5.63;2.57;;;7.20;99.90;;;;;;5076615;28;20535;-69
2021/12/18 13:03:18;;;;;;;2.50;2.10;;;7.20;99.90;;;;;;5077500;28;20446;-70
2021/12/18 13:05:52;;;;;;;2.40;1.77;;;7.30;99.90;;;;;;5076990;28;20430;-70
2021/12/18 13:08:19;;;;;;;3.60;2.00;;;7.20;99.90;;;;;;5076367;28;20435;-70
2021/12/18 13:10:49;;;;;;;2.50;2.20;;;7.30;99.90;;;;;;5075543;28;20454;-70
2021/12/18 13:13:18;;;;;;;4.70;1.87;;;7.30;99.90;;;;;;5076010;28;20493;-70
2021/12/18 13:15:57;;;;;;;3.10;2.10;;;7.30;99.90;;;;;;5075490;28;20482;-70
2021/12/18 13:18:26;;;;;;;2.50;2.20;;;7.30;99.90;;;;;;5075905;28;20488;-70
2021/12/18 13:20:56;;;;;;;2.47;2.03;;;7.30;99.90;;;;;;5075684;28;20454;-70
2021/12/18 13:23:36;;;;;;;1.83;1.67;;;7.40;99.90;;;;;;5075893;28;20500;-71
2021/12/18 13:26:05;;;;;;;2.67;2.00;;;7.30;99.90;;;;;;5075906;28;20446;-69
2021/12/18 13:28:32;;;;;;;2.80;1.97;;;7.30;99.90;;;;;;5076052;28;20458;-70
2021/12/18 13:30:59;;;;;;;3.43;2.10;;;7.30;99.90;;;;;;5075389;28;20469;-71
2021/12/18 13:33:28;;;;;;;3.37;2.40;;;7.30;99.90;;;;;;5075407;28;20461;-70
2021/12/18 13:35:57;;;;;;;4.13;2.83;;;7.30;99.90;;;;;;5075159;28;20474;-70
2021/12/18 13:38:25;;;;;;;4.40;2.13;;;7.30;99.90;;;;;;5075387;28;20464;-69
2021/12/18 13:40:52;;;;;;;3.07;2.77;;;7.30;99.90;;;;;;5075409;28;20564;-70